sensor_id;sensor_type;location;lat;lon;timestamp;P1;durP1;ratioP1;P2;durP2;ratioP2
15899;SDS011;8048;50.644;6.184;2023-04-25T00:01:21;6.73;;;6.30;;
15899;SDS011;8048;50.644;6.184;2023-04-25T00:03:47;9.03;;;6.37;;
15899;SDS011;8048;50.644;6.184;2023-04-25T00:06:13;7.03;;;6.40;;
15899;SDS011;8048;50.644;6.184;2023-04-25T00:08:39;6.60;;;5.97;;
15899;SDS011;8048;50.644;6.184;2023-04-25T00:11:05;7.03;;;6.33;;
15899;SDS011;8048;50.644;6.184;2023-04-25T00:13:31;6.07;;;5.50;;
15899;SDS011;8048;50.644;6.184;2023-04-25T00:15:56;7.17;;;6.57;;
15899;SDS011;8048;50.644;6.184;2023-04-25T00:18:23;7.63;;;7.00;;
15899;SDS011;8048;50.644;6.184;2023-04-25T00:20:48;6.83;;;6.20;;
15899;SDS011;8048;50.644;6.184;2023-04-25T00:23:15;6.20;;;5.60;;
15899;SDS011;8048;50.644;6.184;2023-04-25T00:25:46;8.23;;;6.70;;
15899;SDS011;8048;50.644;6.184;2023-04-25T00:28:13;10.60;;;7.27;;
15899;SDS011;8048;50.644;6.184;2023-04-25T00:30:38;5.93;;;5.33;;
15899;SDS011;8048;50.644;6.184;2023-04-25T00:33:05;7.63;;;6.80;;
15899;SDS011;8048;50.644;6.184;2023-04-25T00:35:31;8.70;;;6.77;;
15899;SDS011;8048;50.644;6.184;2023-04-25T00:37:56;7.90;;;7.10;;
15899;SDS011;8048;50.644;6.184;2023-04-25T00:40:22;8.30;;;7.10;;
15899;SDS011;8048;50.644;6.184;2023-04-25T00:42:48;9.43;;;7.27;;
15899;SDS011;8048;50.644;6.184;2023-04-25T00:45:14;8.30;;;7.00;;
15899;SDS011;8048;50.644;6.184;2023-04-25T00:47:40;7.20;;;6.70;;
15899;SDS011;8048;50.644;6.184;2023-04-25T00:50:06;7.67;;;6.97;;
15899;SDS011;8048;50.644;6.184;2023-04-25T00:52:32;6.80;;;6.23;;
15899;SDS011;8048;50.644;6.184;2023-04-25T00:54:58;8.37;;;7.53;;
15899;SDS011;8048;50.644;6.184;2023-04-25T00:57:24;6.23;;;5.27;;
15899;SDS011;8048;50.644;6.184;2023-04-25T00:59:50;7.70;;;7.00;;
15899;SDS011;8048;50.644;6.184;2023-04-25T01:02:17;7.57;;;6.87;;
15899;SDS011;8048;50.644;6.184;2023-04-25T01:04:43;6.33;;;5.80;;
15899;SDS011;8048;50.644;6.184;2023-04-25T01:07:09;8.00;;;7.30;;
15899;SDS011;8048;50.644;6.184;2023-04-25T01:09:35;7.07;;;5.80;;
15899;SDS011;8048;50.644;6.184;2023-04-25T01:12:00;8.33;;;7.27;;
15899;SDS011;8048;50.644;6.184;2023-04-25T01:14:27;6.87;;;6.17;;
15899;SDS011;8048;50.644;6.184;2023-04-25T01:16:54;7.17;;;6.57;;
15899;SDS011;8048;50.644;6.184;2023-04-25T01:19:19;7.30;;;6.60;;
15899;SDS011;8048;50.644;6.184;2023-04-25T01:21:45;5.67;;;5.10;;
15899;SDS011;8048;50.644;6.184;2023-04-25T01:24:11;7.13;;;6.00;;
15899;SDS011;8048;50.644;6.184;2023-04-25T01:26:37;11.50;;;6.23;;
15899;SDS011;8048;50.644;6.184;2023-04-25T01:29:05;6.73;;;5.43;;
15899;SDS011;8048;50.644;6.184;2023-04-25T01:31:32;6.53;;;5.70;;
15899;SDS011;8048;50.644;6.184;2023-04-25T01:33:58;7.13;;;6.33;;
15899;SDS011;8048;50.644;6.184;2023-04-25T01:36:24;13.63;;;6.47;;
15899;SDS011;8048;50.644;6.184;2023-04-25T01:38:51;10.13;;;5.73;;
15899;SDS011;8048;50.644;6.184;2023-04-25T01:41:17;7.70;;;6.23;;
15899;SDS011;8048;50.644;6.184;2023-04-25T01:43:44;6.83;;;6.20;;
15899;SDS011;8048;50.644;6.184;2023-04-25T01:46:10;10.13;;;5.50;;
15899;SDS011;8048;50.644;6.184;2023-04-25T01:48:36;6.47;;;5.83;;
15899;SDS011;8048;50.644;6.184;2023-04-25T01:51:02;7.73;;;5.20;;
15899;SDS011;8048;50.644;6.184;2023-04-25T01:53:28;10.33;;;5.33;;
15899;SDS011;8048;50.644;6.184;2023-04-25T01:55:54;9.80;;;6.33;;
15899;SDS011;8048;50.644;6.184;2023-04-25T01:58:19;8.67;;;6.70;;
15899;SDS011;8048;50.644;6.184;2023-04-25T02:00:45;6.57;;;5.97;;
15899;SDS011;8048;50.644;6.184;2023-04-25T02:03:11;5.90;;;4.90;;
15899;SDS011;8048;50.644;6.184;2023-04-25T02:05:37;10.40;;;7.10;;
15899;SDS011;8048;50.644;6.184;2023-04-25T02:08:04;10.27;;;6.27;;
15899;SDS011;8048;50.644;6.184;2023-04-25T02:10:31;11.30;;;6.53;;
15899;SDS011;8048;50.644;6.184;2023-04-25T02:12:57;7.37;;;6.63;;
15899;SDS011;8048;50.644;6.184;2023-04-25T02:15:23;11.73;;;5.50;;
15899;SDS011;8048;50.644;6.184;2023-04-25T02:17:49;10.13;;;5.40;;
15899;SDS011;8048;50.644;6.184;2023-04-25T02:20:15;12.17;;;5.60;;
15899;SDS011;8048;50.644;6.184;2023-04-25T02:22:46;5.27;;;4.73;;
15899;SDS011;8048;50.644;6.184;2023-04-25T02:25:12;7.43;;;5.67;;
15899;SDS011;8048;50.644;6.184;2023-04-25T02:27:37;14.53;;;5.73;;
15899;SDS011;8048;50.644;6.184;2023-04-25T02:30:04;6.60;;;4.70;;
15899;SDS011;8048;50.644;6.184;2023-04-25T02:32:31;4.93;;;4.40;;
15899;SDS011;8048;50.644;6.184;2023-04-25T02:34:57;6.80;;;4.90;;
15899;SDS011;8048;50.644;6.184;2023-04-25T02:37:28;7.47;;;4.80;;
15899;SDS011;8048;50.644;6.184;2023-04-25T02:39:57;13.67;;;5.10;;
15899;SDS011;8048;50.644;6.184;2023-04-25T02:42:23;10.53;;;5.13;;
15899;SDS011;8048;50.644;6.184;2023-04-25T02:44:48;5.30;;;4.90;;
15899;SDS011;8048;50.644;6.184;2023-04-25T02:47:14;6.03;;;4.13;;
15899;SDS011;8048;50.644;6.184;2023-04-25T02:49:39;4.63;;;4.10;;
15899;SDS011;8048;50.644;6.184;2023-04-25T02:52:05;8.03;;;5.30;;
15899;SDS011;8048;50.644;6.184;2023-04-25T02:54:31;9.13;;;4.97;;
15899;SDS011;8048;50.644;6.184;2023-04-25T02:56:56;12.17;;;5.50;;
15899;SDS011;8048;50.644;6.184;2023-04-25T02:59:22;19.27;;;5.20;;
15899;SDS011;8048;50.644;6.184;2023-04-25T03:01:47;13.60;;;4.90;;
15899;SDS011;8048;50.644;6.184;2023-04-25T03:04:13;8.73;;;5.00;;
15899;SDS011;8048;50.644;6.184;2023-04-25T03:06:39;6.27;;;4.10;;
15899;SDS011;8048;50.644;6.184;2023-04-25T03:09:04;5.17;;;4.30;;
15899;SDS011;8048;50.644;6.184;2023-04-25T03:11:30;7.43;;;5.33;;
15899;SDS011;8048;50.644;6.184;2023-04-25T03:13:55;6.30;;;4.30;;
15899;SDS011;8048;50.644;6.184;2023-04-25T03:16:21;6.83;;;4.70;;
15899;SDS011;8048;50.644;6.184;2023-04-25T03:18:47;5.90;;;5.20;;
15899;SDS011;8048;50.644;6.184;2023-04-25T03:21:12;7.07;;;4.93;;
15899;SDS011;8048;50.644;6.184;2023-04-25T03:23:38;5.47;;;5.00;;
15899;SDS011;8048;50.644;6.184;2023-04-25T03:26:03;6.33;;;4.80;;
15899;SDS011;8048;50.644;6.184;2023-04-25T03:28:29;7.40;;;5.60;;
15899;SDS011;8048;50.644;6.184;2023-04-25T03:30:54;13.93;;;4.40;;
15899;SDS011;8048;50.644;6.184;2023-04-25T03:33:20;7.17;;;4.43;;
15899;SDS011;8048;50.644;6.184;2023-04-25T03:35:45;8.83;;;7.20;;
15899;SDS011;8048;50.644;6.184;2023-04-25T03:38:11;18.77;;;8.50;;
15899;SDS011;8048;50.644;6.184;2023-04-25T03:40:36;9.40;;;5.67;;
15899;SDS011;8048;50.644;6.184;2023-04-25T03:43:02;10.67;;;6.73;;
15899;SDS011;8048;50.644;6.184;2023-04-25T03:45:28;11.97;;;6.70;;
15899;SDS011;8048;50.644;6.184;2023-04-25T03:47:53;7.27;;;6.67;;
15899;SDS011;8048;50.644;6.184;2023-04-25T03:50:19;10.23;;;6.53;;
15899;SDS011;8048;50.644;6.184;2023-04-25T03:52:44;15.90;;;8.40;;
15899;SDS011;8048;50.644;6.184;2023-04-25T03:55:10;16.77;;;8.70;;
15899;SDS011;8048;50.644;6.184;2023-04-25T03:57:35;11.67;;;7.60;;
15899;SDS011;8048;50.644;6.184;2023-04-25T04:00:01;8.47;;;6.80;;
15899;SDS011;8048;50.644;6.184;2023-04-25T04:02:28;11.40;;;6.60;;
15899;SDS011;8048;50.644;6.184;2023-04-25T04:04:54;9.10;;;5.70;;
15899;SDS011;8048;50.644;6.184;2023-04-25T04:07:20;9.60;;;6.53;;
15899;SDS011;8048;50.644;6.184;2023-04-25T04:09:46;11.73;;;6.40;;
15899;SDS011;8048;50.644;6.184;2023-04-25T04:12:11;9.20;;;6.37;;
15899;SDS011;8048;50.644;6.184;2023-04-25T04:14:37;10.13;;;5.20;;
15899;SDS011;8048;50.644;6.184;2023-04-25T04:17:02;11.23;;;5.93;;
15899;SDS011;8048;50.644;6.184;2023-04-25T04:19:28;12.30;;;6.53;;
15899;SDS011;8048;50.644;6.184;2023-04-25T04:21:53;9.50;;;5.90;;
15899;SDS011;8048;50.644;6.184;2023-04-25T04:24:19;9.60;;;5.80;;
15899;SDS011;8048;50.644;6.184;2023-04-25T04:26:45;8.57;;;6.20;;
15899;SDS011;8048;50.644;6.184;2023-04-25T04:29:10;7.03;;;5.43;;
15899;SDS011;8048;50.644;6.184;2023-04-25T04:31:36;9.30;;;5.93;;
15899;SDS011;8048;50.644;6.184;2023-04-25T04:34:02;8.90;;;6.50;;
15899;SDS011;8048;50.644;6.184;2023-04-25T04:36:28;8.30;;;5.57;;
15899;SDS011;8048;50.644;6.184;2023-04-25T04:38:54;5.97;;;5.37;;
15899;SDS011;8048;50.644;6.184;2023-04-25T04:41:21;8.17;;;5.70;;
15899;SDS011;8048;50.644;6.184;2023-04-25T04:43:47;6.03;;;4.80;;
15899;SDS011;8048;50.644;6.184;2023-04-25T04:46:12;13.60;;;6.40;;
15899;SDS011;8048;50.644;6.184;2023-04-25T04:48:38;7.73;;;5.70;;
15899;SDS011;8048;50.644;6.184;2023-04-25T04:51:05;8.20;;;5.93;;
15899;SDS011;8048;50.644;6.184;2023-04-25T04:53:31;10.03;;;5.50;;
15899;SDS011;8048;50.644;6.184;2023-04-25T04:55:57;10.90;;;4.50;;
15899;SDS011;8048;50.644;6.184;2023-04-25T04:58:23;9.47;;;5.53;;
15899;SDS011;8048;50.644;6.184;2023-04-25T05:00:48;10.83;;;4.97;;
15899;SDS011;8048;50.644;6.184;2023-04-25T05:03:14;6.13;;;5.40;;
15899;SDS011;8048;50.644;6.184;2023-04-25T05:05:40;5.30;;;4.33;;
15899;SDS011;8048;50.644;6.184;2023-04-25T05:08:06;8.97;;;5.27;;
15899;SDS011;8048;50.644;6.184;2023-04-25T05:10:32;8.87;;;5.53;;
15899;SDS011;8048;50.644;6.184;2023-04-25T05:12:57;6.93;;;4.47;;
15899;SDS011;8048;50.644;6.184;2023-04-25T05:15:23;6.40;;;4.47;;
15899;SDS011;8048;50.644;6.184;2023-04-25T05:17:49;7.70;;;5.73;;
15899;SDS011;8048;50.644;6.184;2023-04-25T05:20:14;7.00;;;4.70;;
15899;SDS011;8048;50.644;6.184;2023-04-25T05:22:40;7.70;;;5.20;;
15899;SDS011;8048;50.644;6.184;2023-04-25T05:25:07;5.70;;;5.20;;
15899;SDS011;8048;50.644;6.184;2023-04-25T05:27:33;10.80;;;5.90;;
15899;SDS011;8048;50.644;6.184;2023-04-25T05:29:59;7.00;;;4.57;;
15899;SDS011;8048;50.644;6.184;2023-04-25T05:32:26;5.67;;;4.40;;
15899;SDS011;8048;50.644;6.184;2023-04-25T05:34:51;7.17;;;5.23;;
15899;SDS011;8048;50.644;6.184;2023-04-25T05:37:17;6.70;;;5.53;;
15899;SDS011;8048;50.644;6.184;2023-04-25T05:39:42;5.20;;;4.80;;
15899;SDS011;8048;50.644;6.184;2023-04-25T05:42:08;8.30;;;4.83;;
15899;SDS011;8048;50.644;6.184;2023-04-25T05:44:33;7.03;;;4.50;;
15899;SDS011;8048;50.644;6.184;2023-04-25T05:46:59;7.83;;;4.60;;
15899;SDS011;8048;50.644;6.184;2023-04-25T05:49:25;7.10;;;4.50;;
15899;SDS011;8048;50.644;6.184;2023-04-25T05:51:50;7.33;;;5.10;;
15899;SDS011;8048;50.644;6.184;2023-04-25T05:54:16;10.63;;;4.80;;
15899;SDS011;8048;50.644;6.184;2023-04-25T05:56:41;6.57;;;5.00;;
15899;SDS011;8048;50.644;6.184;2023-04-25T05:59:07;10.17;;;4.57;;
15899;SDS011;8048;50.644;6.184;2023-04-25T06:01:32;14.17;;;5.10;;
15899;SDS011;8048;50.644;6.184;2023-04-25T06:03:58;5.50;;;4.73;;
15899;SDS011;8048;50.644;6.184;2023-04-25T06:06:23;10.33;;;5.40;;
15899;SDS011;8048;50.644;6.184;2023-04-25T06:08:49;4.50;;;4.10;;
15899;SDS011;8048;50.644;6.184;2023-04-25T06:11:15;9.03;;;4.73;;
15899;SDS011;8048;50.644;6.184;2023-04-25T06:13:40;7.17;;;4.80;;
15899;SDS011;8048;50.644;6.184;2023-04-25T06:16:06;8.20;;;5.37;;
15899;SDS011;8048;50.644;6.184;2023-04-25T06:18:32;16.97;;;6.43;;
15899;SDS011;8048;50.644;6.184;2023-04-25T06:20:58;13.00;;;4.97;;
15899;SDS011;8048;50.644;6.184;2023-04-25T06:23:23;5.23;;;4.73;;
15899;SDS011;8048;50.644;6.184;2023-04-25T06:25:49;6.77;;;5.73;;
15899;SDS011;8048;50.644;6.184;2023-04-25T06:28:14;9.13;;;4.10;;
15899;SDS011;8048;50.644;6.184;2023-04-25T06:30:40;8.63;;;4.70;;
15899;SDS011;8048;50.644;6.184;2023-04-25T06:33:05;12.37;;;5.47;;
15899;SDS011;8048;50.644;6.184;2023-04-25T06:35:33;6.17;;;5.13;;
15899;SDS011;8048;50.644;6.184;2023-04-25T06:37:59;11.27;;;5.10;;
15899;SDS011;8048;50.644;6.184;2023-04-25T06:40:24;11.67;;;5.47;;
15899;SDS011;8048;50.644;6.184;2023-04-25T06:42:50;5.90;;;4.07;;
15899;SDS011;8048;50.644;6.184;2023-04-25T06:45:16;8.23;;;4.57;;
15899;SDS011;8048;50.644;6.184;2023-04-25T06:47:41;8.27;;;5.00;;
15899;SDS011;8048;50.644;6.184;2023-04-25T06:50:07;7.07;;;4.83;;
15899;SDS011;8048;50.644;6.184;2023-04-25T06:52:33;6.17;;;4.77;;
15899;SDS011;8048;50.644;6.184;2023-04-25T06:54:58;11.70;;;6.13;;
15899;SDS011;8048;50.644;6.184;2023-04-25T06:57:24;8.60;;;5.03;;
15899;SDS011;8048;50.644;6.184;2023-04-25T06:59:49;12.90;;;6.27;;
15899;SDS011;8048;50.644;6.184;2023-04-25T07:02:15;7.70;;;4.80;;
15899;SDS011;8048;50.644;6.184;2023-04-25T07:04:40;4.13;;;3.83;;
15899;SDS011;8048;50.644;6.184;2023-04-25T07:07:06;10.93;;;4.40;;
15899;SDS011;8048;50.644;6.184;2023-04-25T07:09:31;11.13;;;4.90;;
15899;SDS011;8048;50.644;6.184;2023-04-25T07:11:58;4.57;;;4.13;;
15899;SDS011;8048;50.644;6.184;2023-04-25T07:14:26;5.23;;;4.47;;
15899;SDS011;8048;50.644;6.184;2023-04-25T07:16:51;11.07;;;6.37;;
15899;SDS011;8048;50.644;6.184;2023-04-25T07:19:17;10.80;;;4.70;;
15899;SDS011;8048;50.644;6.184;2023-04-25T07:21:42;6.40;;;4.43;;
15899;SDS011;8048;50.644;6.184;2023-04-25T07:24:08;9.23;;;4.93;;
15899;SDS011;8048;50.644;6.184;2023-04-25T07:26:33;8.10;;;4.87;;
15899;SDS011;8048;50.644;6.184;2023-04-25T07:28:59;11.40;;;4.10;;
15899;SDS011;8048;50.644;6.184;2023-04-25T07:31:24;8.90;;;4.50;;
15899;SDS011;8048;50.644;6.184;2023-04-25T07:33:50;10.83;;;4.87;;
15899;SDS011;8048;50.644;6.184;2023-04-25T07:36:16;5.60;;;4.63;;
15899;SDS011;8048;50.644;6.184;2023-04-25T07:38:41;7.10;;;4.77;;
15899;SDS011;8048;50.644;6.184;2023-04-25T07:41:07;9.17;;;4.30;;
15899;SDS011;8048;50.644;6.184;2023-04-25T07:43:32;5.20;;;4.80;;
15899;SDS011;8048;50.644;6.184;2023-04-25T07:45:58;5.80;;;3.77;;
15899;SDS011;8048;50.644;6.184;2023-04-25T07:48:23;6.70;;;3.80;;
15899;SDS011;8048;50.644;6.184;2023-04-25T07:50:49;13.33;;;3.97;;
15899;SDS011;8048;50.644;6.184;2023-04-25T07:53:15;11.33;;;4.30;;
15899;SDS011;8048;50.644;6.184;2023-04-25T07:55:41;4.47;;;3.70;;
15899;SDS011;8048;50.644;6.184;2023-04-25T07:58:06;7.00;;;3.33;;
15899;SDS011;8048;50.644;6.184;2023-04-25T08:00:33;4.13;;;3.83;;
15899;SDS011;8048;50.644;6.184;2023-04-25T08:02:58;8.73;;;3.97;;
15899;SDS011;8048;50.644;6.184;2023-04-25T08:05:24;9.03;;;3.63;;
15899;SDS011;8048;50.644;6.184;2023-04-25T08:07:49;8.00;;;3.00;;
15899;SDS011;8048;50.644;6.184;2023-04-25T08:10:15;8.33;;;4.17;;
15899;SDS011;8048;50.644;6.184;2023-04-25T08:12:41;4.53;;;3.20;;
15899;SDS011;8048;50.644;6.184;2023-04-25T08:15:07;5.30;;;3.33;;
15899;SDS011;8048;50.644;6.184;2023-04-25T08:17:33;12.63;;;4.10;;
15899;SDS011;8048;50.644;6.184;2023-04-25T08:19:58;6.83;;;3.80;;
15899;SDS011;8048;50.644;6.184;2023-04-25T08:22:24;7.33;;;3.17;;
15899;SDS011;8048;50.644;6.184;2023-04-25T08:24:50;19.63;;;4.17;;
15899;SDS011;8048;50.644;6.184;2023-04-25T08:27:15;10.93;;;3.27;;
15899;SDS011;8048;50.644;6.184;2023-04-25T08:29:42;6.80;;;3.10;;
15899;SDS011;8048;50.644;6.184;2023-04-25T08:32:07;4.37;;;3.33;;
15899;SDS011;8048;50.644;6.184;2023-04-25T08:34:33;6.33;;;3.60;;
15899;SDS011;8048;50.644;6.184;2023-04-25T08:36:58;7.67;;;4.00;;
15899;SDS011;8048;50.644;6.184;2023-04-25T08:39:24;6.23;;;3.60;;
15899;SDS011;8048;50.644;6.184;2023-04-25T08:41:49;9.03;;;4.10;;
15899;SDS011;8048;50.644;6.184;2023-04-25T08:44:15;5.53;;;3.30;;
15899;SDS011;8048;50.644;6.184;2023-04-25T08:46:42;4.33;;;3.80;;
15899;SDS011;8048;50.644;6.184;2023-04-25T08:49:14;8.33;;;3.27;;
15899;SDS011;8048;50.644;6.184;2023-04-25T08:51:45;3.63;;;3.33;;
15899;SDS011;8048;50.644;6.184;2023-04-25T08:54:12;4.77;;;3.30;;
15899;SDS011;8048;50.644;6.184;2023-04-25T08:56:43;3.80;;;2.90;;
15899;SDS011;8048;50.644;6.184;2023-04-25T08:59:11;5.87;;;3.93;;
15899;SDS011;8048;50.644;6.184;2023-04-25T09:01:37;8.93;;;4.13;;
15899;SDS011;8048;50.644;6.184;2023-04-25T09:04:02;3.93;;;3.63;;
15899;SDS011;8048;50.644;6.184;2023-04-25T09:06:28;4.27;;;3.43;;
15899;SDS011;8048;50.644;6.184;2023-04-25T09:08:55;3.07;;;2.83;;
15899;SDS011;8048;50.644;6.184;2023-04-25T09:11:27;3.80;;;3.00;;
15899;SDS011;8048;50.644;6.184;2023-04-25T09:14:09;3.80;;;2.60;;
15899;SDS011;8048;50.644;6.184;2023-04-25T09:17:00;7.10;;;4.07;;
15899;SDS011;8048;50.644;6.184;2023-04-25T09:19:32;7.07;;;3.70;;
15899;SDS011;8048;50.644;6.184;2023-04-25T09:22:05;10.43;;;9.43;;
15899;SDS011;8048;50.644;6.184;2023-04-25T09:24:31;5.63;;;2.90;;
15899;SDS011;8048;50.644;6.184;2023-04-25T09:27:02;12.27;;;8.63;;
15899;SDS011;8048;50.644;6.184;2023-04-25T09:29:29;10.70;;;5.60;;
15899;SDS011;8048;50.644;6.184;2023-04-25T09:32:12;5.13;;;4.43;;
15899;SDS011;8048;50.644;6.184;2023-04-25T09:34:54;10.10;;;5.33;;
15899;SDS011;8048;50.644;6.184;2023-04-25T09:37:22;7.10;;;3.80;;
15899;SDS011;8048;50.644;6.184;2023-04-25T09:39:59;7.53;;;4.63;;
15899;SDS011;8048;50.644;6.184;2023-04-25T09:42:30;5.97;;;3.77;;
15899;SDS011;8048;50.644;6.184;2023-04-25T09:44:57;11.93;;;7.30;;
15899;SDS011;8048;50.644;6.184;2023-04-25T09:47:24;6.40;;;4.13;;
15899;SDS011;8048;50.644;6.184;2023-04-25T09:49:51;10.67;;;5.57;;
15899;SDS011;8048;50.644;6.184;2023-04-25T09:52:19;17.87;;;7.80;;
15899;SDS011;8048;50.644;6.184;2023-04-25T09:54:45;5.53;;;4.10;;
15899;SDS011;8048;50.644;6.184;2023-04-25T09:57:13;6.20;;;4.57;;
15899;SDS011;8048;50.644;6.184;2023-04-25T09:59:43;7.30;;;3.70;;
15899;SDS011;8048;50.644;6.184;2023-04-25T10:02:13;10.20;;;5.83;;
15899;SDS011;8048;50.644;6.184;2023-04-25T10:04:40;7.60;;;3.90;;
15899;SDS011;8048;50.644;6.184;2023-04-25T10:07:07;6.10;;;5.60;;
15899;SDS011;8048;50.644;6.184;2023-04-25T10:09:33;8.40;;;3.80;;
15899;SDS011;8048;50.644;6.184;2023-04-25T10:12:02;10.13;;;4.60;;
15899;SDS011;8048;50.644;6.184;2023-04-25T10:14:31;3.77;;;3.47;;
15899;SDS011;8048;50.644;6.184;2023-04-25T10:16:58;9.03;;;4.10;;
15899;SDS011;8048;50.644;6.184;2023-04-25T10:19:24;4.83;;;3.90;;
15899;SDS011;8048;50.644;6.184;2023-04-25T10:21:52;10.73;;;4.17;;
15899;SDS011;8048;50.644;6.184;2023-04-25T10:24:37;5.87;;;4.63;;
15899;SDS011;8048;50.644;6.184;2023-04-25T10:27:04;4.50;;;3.47;;
15899;SDS011;8048;50.644;6.184;2023-04-25T10:29:30;9.00;;;3.80;;
15899;SDS011;8048;50.644;6.184;2023-04-25T10:31:56;4.27;;;3.33;;
15899;SDS011;8048;50.644;6.184;2023-04-25T10:34:37;6.07;;;4.80;;
15899;SDS011;8048;50.644;6.184;2023-04-25T10:37:09;7.53;;;3.50;;
15899;SDS011;8048;50.644;6.184;2023-04-25T10:39:36;5.47;;;3.13;;
15899;SDS011;8048;50.644;6.184;2023-04-25T10:42:06;5.60;;;4.23;;
15899;SDS011;8048;50.644;6.184;2023-04-25T10:44:33;5.43;;;3.57;;
15899;SDS011;8048;50.644;6.184;2023-04-25T10:46:59;9.60;;;5.00;;
15899;SDS011;8048;50.644;6.184;2023-04-25T10:49:28;3.90;;;3.57;;
15899;SDS011;8048;50.644;6.184;2023-04-25T10:52:11;7.80;;;4.23;;
15899;SDS011;8048;50.644;6.184;2023-04-25T10:54:41;5.83;;;4.53;;
15899;SDS011;8048;50.644;6.184;2023-04-25T11:05:18;5.27;;;3.80;;
15899;SDS011;8048;50.644;6.184;2023-04-25T11:08:01;4.27;;;3.53;;
15899;SDS011;8048;50.644;6.184;2023-04-25T11:10:32;6.43;;;4.13;;
15899;SDS011;8048;50.644;6.184;2023-04-25T11:13:00;3.67;;;3.43;;
15899;SDS011;8048;50.644;6.184;2023-04-25T11:15:26;4.23;;;3.83;;
15899;SDS011;8048;50.644;6.184;2023-04-25T11:17:52;6.60;;;4.60;;
15899;SDS011;8048;50.644;6.184;2023-04-25T11:20:19;4.60;;;3.73;;
15899;SDS011;8048;50.644;6.184;2023-04-25T11:22:45;6.07;;;4.03;;
15899;SDS011;8048;50.644;6.184;2023-04-25T11:25:12;8.63;;;5.97;;
15899;SDS011;8048;50.644;6.184;2023-04-25T11:27:55;5.10;;;4.33;;
15899;SDS011;8048;50.644;6.184;2023-04-25T11:30:22;4.73;;;4.43;;
15899;SDS011;8048;50.644;6.184;2023-04-25T11:32:49;5.23;;;4.73;;
15899;SDS011;8048;50.644;6.184;2023-04-25T11:35:17;7.60;;;4.27;;
15899;SDS011;8048;50.644;6.184;2023-04-25T11:37:43;5.20;;;4.70;;
15899;SDS011;8048;50.644;6.184;2023-04-25T11:40:09;5.03;;;4.53;;
15899;SDS011;8048;50.644;6.184;2023-04-25T11:42:39;5.23;;;3.50;;
15899;SDS011;8048;50.644;6.184;2023-04-25T11:45:08;9.60;;;4.70;;
15899;SDS011;8048;50.644;6.184;2023-04-25T11:47:34;9.53;;;5.33;;
15899;SDS011;8048;50.644;6.184;2023-04-25T11:50:01;4.30;;;3.90;;
15899;SDS011;8048;50.644;6.184;2023-04-25T11:52:44;4.87;;;4.47;;
15899;SDS011;8048;50.644;6.184;2023-04-25T11:55:13;4.73;;;4.17;;
15899;SDS011;8048;50.644;6.184;2023-04-25T11:57:40;4.30;;;3.70;;
15899;SDS011;8048;50.644;6.184;2023-04-25T12:02:34;5.50;;;5.10;;
15899;SDS011;8048;50.644;6.184;2023-04-25T12:05:01;9.27;;;5.47;;
15899;SDS011;8048;50.644;6.184;2023-04-25T12:07:31;6.67;;;4.60;;
15899;SDS011;8048;50.644;6.184;2023-04-25T12:09:56;6.50;;;3.57;;
15899;SDS011;8048;50.644;6.184;2023-04-25T12:12:26;4.23;;;3.90;;
15899;SDS011;8048;50.644;6.184;2023-04-25T12:14:52;5.33;;;4.83;;
15899;SDS011;8048;50.644;6.184;2023-04-25T12:17:20;5.40;;;3.60;;
15899;SDS011;8048;50.644;6.184;2023-04-25T12:19:46;6.13;;;4.70;;
15899;SDS011;8048;50.644;6.184;2023-04-25T12:22:18;11.00;;;4.20;;
15899;SDS011;8048;50.644;6.184;2023-04-25T12:24:48;12.27;;;4.87;;
15899;SDS011;8048;50.644;6.184;2023-04-25T12:27:14;5.20;;;4.53;;
15899;SDS011;8048;50.644;6.184;2023-04-25T12:29:49;5.27;;;4.10;;
15899;SDS011;8048;50.644;6.184;2023-04-25T12:32:16;4.00;;;3.70;;
15899;SDS011;8048;50.644;6.184;2023-04-25T12:34:42;6.33;;;4.10;;
15899;SDS011;8048;50.644;6.184;2023-04-25T12:37:08;3.90;;;3.60;;
15899;SDS011;8048;50.644;6.184;2023-04-25T12:39:34;8.23;;;5.47;;
15899;SDS011;8048;50.644;6.184;2023-04-25T12:42:00;3.67;;;3.47;;
15899;SDS011;8048;50.644;6.184;2023-04-25T12:44:25;4.63;;;4.13;;
15899;SDS011;8048;50.644;6.184;2023-04-25T12:46:51;4.73;;;3.63;;
15899;SDS011;8048;50.644;6.184;2023-04-25T12:49:17;5.13;;;3.07;;
15899;SDS011;8048;50.644;6.184;2023-04-25T12:51:43;3.60;;;3.03;;
15899;SDS011;8048;50.644;6.184;2023-04-25T12:54:08;4.10;;;3.67;;
15899;SDS011;8048;50.644;6.184;2023-04-25T12:56:35;5.40;;;3.50;;
15899;SDS011;8048;50.644;6.184;2023-04-25T12:59:01;3.77;;;3.33;;
15899;SDS011;8048;50.644;6.184;2023-04-25T13:01:28;4.90;;;3.40;;
15899;SDS011;8048;50.644;6.184;2023-04-25T13:03:53;8.90;;;3.80;;
15899;SDS011;8048;50.644;6.184;2023-04-25T13:06:19;8.20;;;4.57;;
15899;SDS011;8048;50.644;6.184;2023-04-25T13:08:45;5.00;;;3.77;;
15899;SDS011;8048;50.644;6.184;2023-04-25T13:11:11;4.10;;;3.80;;
15899;SDS011;8048;50.644;6.184;2023-04-25T13:13:37;4.87;;;3.73;;
15899;SDS011;8048;50.644;6.184;2023-04-25T13:16:03;3.70;;;3.30;;
15899;SDS011;8048;50.644;6.184;2023-04-25T13:18:29;8.50;;;2.97;;
15899;SDS011;8048;50.644;6.184;2023-04-25T13:20:56;3.87;;;3.60;;
15899;SDS011;8048;50.644;6.184;2023-04-25T13:23:22;8.17;;;3.93;;
15899;SDS011;8048;50.644;6.184;2023-04-25T13:25:50;3.27;;;2.97;;
15899;SDS011;8048;50.644;6.184;2023-04-25T13:28:15;3.00;;;2.80;;
15899;SDS011;8048;50.644;6.184;2023-04-25T13:30:42;3.87;;;2.97;;
15899;SDS011;8048;50.644;6.184;2023-04-25T13:33:08;4.03;;;3.00;;
15899;SDS011;8048;50.644;6.184;2023-04-25T13:35:34;4.23;;;2.57;;
15899;SDS011;8048;50.644;6.184;2023-04-25T13:38:01;4.60;;;2.50;;
15899;SDS011;8048;50.644;6.184;2023-04-25T13:40:26;3.13;;;2.87;;
15899;SDS011;8048;50.644;6.184;2023-04-25T13:42:52;4.97;;;4.50;;
15899;SDS011;8048;50.644;6.184;2023-04-25T13:45:18;3.53;;;2.57;;
15899;SDS011;8048;50.644;6.184;2023-04-25T13:47:44;3.30;;;3.10;;
15899;SDS011;8048;50.644;6.184;2023-04-25T13:50:10;2.60;;;2.40;;
15899;SDS011;8048;50.644;6.184;2023-04-25T13:52:35;3.37;;;3.07;;
15899;SDS011;8048;50.644;6.184;2023-04-25T13:55:01;3.10;;;2.77;;
15899;SDS011;8048;50.644;6.184;2023-04-25T13:57:28;2.93;;;2.70;;
15899;SDS011;8048;50.644;6.184;2023-04-25T13:59:57;3.60;;;2.90;;
15899;SDS011;8048;50.644;6.184;2023-04-25T14:02:22;3.13;;;2.93;;
15899;SDS011;8048;50.644;6.184;2023-04-25T14:04:48;3.60;;;3.40;;
15899;SDS011;8048;50.644;6.184;2023-04-25T14:07:14;3.30;;;2.87;;
15899;SDS011;8048;50.644;6.184;2023-04-25T14:09:41;2.83;;;2.60;;
15899;SDS011;8048;50.644;6.184;2023-04-25T14:12:07;4.83;;;2.40;;
15899;SDS011;8048;50.644;6.184;2023-04-25T14:14:32;2.90;;;2.70;;
15899;SDS011;8048;50.644;6.184;2023-04-25T14:16:58;3.23;;;2.73;;
15899;SDS011;8048;50.644;6.184;2023-04-25T14:19:23;4.70;;;3.40;;
15899;SDS011;8048;50.644;6.184;2023-04-25T14:21:49;2.50;;;2.30;;
15899;SDS011;8048;50.644;6.184;2023-04-25T14:24:15;4.57;;;2.33;;
15899;SDS011;8048;50.644;6.184;2023-04-25T14:26:41;4.10;;;2.97;;
15899;SDS011;8048;50.644;6.184;2023-04-25T14:29:07;5.17;;;3.40;;
15899;SDS011;8048;50.644;6.184;2023-04-25T14:31:36;3.17;;;2.77;;
15899;SDS011;8048;50.644;6.184;2023-04-25T14:34:04;3.80;;;3.20;;
15899;SDS011;8048;50.644;6.184;2023-04-25T14:36:30;3.03;;;2.93;;
15899;SDS011;8048;50.644;6.184;2023-04-25T14:38:56;2.50;;;2.30;;
15899;SDS011;8048;50.644;6.184;2023-04-25T14:41:22;3.80;;;2.90;;
15899;SDS011;8048;50.644;6.184;2023-04-25T14:43:48;3.03;;;2.83;;
15899;SDS011;8048;50.644;6.184;2023-04-25T14:46:13;3.10;;;2.87;;
15899;SDS011;8048;50.644;6.184;2023-04-25T14:48:39;4.13;;;3.10;;
15899;SDS011;8048;50.644;6.184;2023-04-25T14:51:05;3.27;;;2.97;;
15899;SDS011;8048;50.644;6.184;2023-04-25T14:53:31;3.33;;;2.70;;
15899;SDS011;8048;50.644;6.184;2023-04-25T14:55:57;2.60;;;2.40;;
15899;SDS011;8048;50.644;6.184;2023-04-25T14:58:22;2.87;;;2.60;;
15899;SDS011;8048;50.644;6.184;2023-04-25T15:00:48;4.40;;;3.07;;
15899;SDS011;8048;50.644;6.184;2023-04-25T15:03:14;2.50;;;2.33;;
15899;SDS011;8048;50.644;6.184;2023-04-25T15:05:41;3.60;;;3.40;;